sensor_id;sensor_type;location;lat;lon;timestamp;P1;durP1;ratioP1;P2;durP2;ratioP2
71106;SDS011;58763;47.982;11.516;2022-10-16T00:00:32;3.05;;;1.35;;
71106;SDS011;58763;47.982;11.516;2022-10-16T00:02:58;3.55;;;1.48;;
71106;SDS011;58763;47.982;11.516;2022-10-16T00:05:24;5.00;;;1.40;;
71106;SDS011;58763;47.982;11.516;2022-10-16T00:07:49;3.95;;;2.33;;
71106;SDS011;58763;47.982;11.516;2022-10-16T00:10:15;3.40;;;1.90;;
71106;SDS011;58763;47.982;11.516;2022-10-16T00:12:40;3.95;;;1.77;;
71106;SDS011;58763;47.982;11.516;2022-10-16T00:15:06;3.30;;;1.88;;
71106;SDS011;58763;47.982;11.516;2022-10-16T00:17:32;4.47;;;2.65;;
71106;SDS011;58763;47.982;11.516;2022-10-16T00:19:57;4.82;;;4.07;;
71106;SDS011;58763;47.982;11.516;2022-10-16T00:22:23;5.57;;;2.10;;
71106;SDS011;58763;47.982;11.516;2022-10-16T00:24:49;3.70;;;1.10;;
71106;SDS011;58763;47.982;11.516;2022-10-16T00:27:15;7.38;;;1.25;;
71106;SDS011;58763;47.982;11.516;2022-10-16T00:29:41;2.00;;;0.90;;
71106;SDS011;58763;47.982;11.516;2022-10-16T00:32:07;4.57;;;1.30;;
71106;SDS011;58763;47.982;11.516;2022-10-16T00:34:33;2.35;;;0.90;;
71106;SDS011;58763;47.982;11.516;2022-10-16T00:36:58;2.88;;;1.10;;
71106;SDS011;58763;47.982;11.516;2022-10-16T00:39:24;5.05;;;2.60;;
71106;SDS011;58763;47.982;11.516;2022-10-16T00:41:50;4.75;;;2.50;;
71106;SDS011;58763;47.982;11.516;2022-10-16T00:47:27;7.85;;;1.60;;
71106;SDS011;58763;47.982;11.516;2022-10-16T00:49:58;3.60;;;2.10;;
71106;SDS011;58763;47.982;11.516;2022-10-16T00:52:32;4.93;;;1.60;;
71106;SDS011;58763;47.982;11.516;2022-10-16T00:54:58;4.60;;;1.20;;
71106;SDS011;58763;47.982;11.516;2022-10-16T00:57:24;2.97;;;0.98;;
71106;SDS011;58763;47.982;11.516;2022-10-16T00:59:50;2.15;;;0.98;;
71106;SDS011;58763;47.982;11.516;2022-10-16T01:02:16;2.50;;;1.20;;
71106;SDS011;58763;47.982;11.516;2022-10-16T01:04:52;2.58;;;0.82;;
71106;SDS011;58763;47.982;11.516;2022-10-16T01:10:13;2.20;;;1.10;;
71106;SDS011;58763;47.982;11.516;2022-10-16T01:12:58;2.22;;;1.08;;
71106;SDS011;58763;47.982;11.516;2022-10-16T01:23:51;2.00;;;1.00;;
71106;SDS011;58763;47.982;11.516;2022-10-16T01:35:11;7.72;;;1.25;;
71106;SDS011;58763;47.982;11.516;2022-10-16T01:37:52;3.85;;;1.02;;
71106;SDS011;58763;47.982;11.516;2022-10-16T01:40:23;3.05;;;1.20;;
71106;SDS011;58763;47.982;11.516;2022-10-16T01:42:53;2.88;;;1.05;;
71106;SDS011;58763;47.982;11.516;2022-10-16T01:45:24;3.17;;;1.30;;
71106;SDS011;58763;47.982;11.516;2022-10-16T01:47:50;4.97;;;1.10;;
71106;SDS011;58763;47.982;11.516;2022-10-16T01:50:18;2.25;;;0.90;;
71106;SDS011;58763;47.982;11.516;2022-10-16T01:52:48;2.60;;;1.10;;
71106;SDS011;58763;47.982;11.516;2022-10-16T01:55:19;3.80;;;1.70;;
71106;SDS011;58763;47.982;11.516;2022-10-16T01:57:49;4.60;;;3.45;;
71106;SDS011;58763;47.982;11.516;2022-10-16T02:00:18;3.88;;;2.47;;
71106;SDS011;58763;47.982;11.516;2022-10-16T02:02:47;4.53;;;1.73;;
71106;SDS011;58763;47.982;11.516;2022-10-16T02:05:18;4.10;;;2.88;;
71106;SDS011;58763;47.982;11.516;2022-10-16T02:07:48;5.65;;;4.75;;
71106;SDS011;58763;47.982;11.516;2022-10-16T02:10:15;7.03;;;5.10;;
71106;SDS011;58763;47.982;11.516;2022-10-16T02:12:42;4.85;;;3.55;;
71106;SDS011;58763;47.982;11.516;2022-10-16T02:15:13;3.85;;;2.45;;
71106;SDS011;58763;47.982;11.516;2022-10-16T02:17:38;6.22;;;2.00;;
71106;SDS011;58763;47.982;11.516;2022-10-16T02:20:04;3.90;;;1.77;;
71106;SDS011;58763;47.982;11.516;2022-10-16T02:22:35;4.55;;;1.80;;
71106;SDS011;58763;47.982;11.516;2022-10-16T02:25:06;3.85;;;1.92;;
71106;SDS011;58763;47.982;11.516;2022-10-16T02:27:41;4.13;;;2.35;;
71106;SDS011;58763;47.982;11.516;2022-10-16T02:30:38;3.53;;;1.50;;
71106;SDS011;58763;47.982;11.516;2022-10-16T02:33:01;4.38;;;1.30;;
71106;SDS011;58763;47.982;11.516;2022-10-16T02:35:30;4.85;;;1.30;;
71106;SDS011;58763;47.982;11.516;2022-10-16T02:37:56;3.58;;;1.30;;
71106;SDS011;58763;47.982;11.516;2022-10-16T02:40:23;4.50;;;1.33;;
71106;SDS011;58763;47.982;11.516;2022-10-16T02:42:50;3.70;;;1.40;;
71106;SDS011;58763;47.982;11.516;2022-10-16T02:45:17;5.15;;;1.55;;
71106;SDS011;58763;47.982;11.516;2022-10-16T02:47:43;3.65;;;1.50;;
71106;SDS011;58763;47.982;11.516;2022-10-16T02:50:09;4.13;;;1.27;;
71106;SDS011;58763;47.982;11.516;2022-10-16T02:52:35;2.70;;;1.20;;
71106;SDS011;58763;47.982;11.516;2022-10-16T02:55:00;2.72;;;1.02;;
71106;SDS011;58763;47.982;11.516;2022-10-16T02:57:26;4.93;;;1.20;;
71106;SDS011;58763;47.982;11.516;2022-10-16T02:59:52;3.22;;;1.02;;
71106;SDS011;58763;47.982;11.516;2022-10-16T03:02:17;2.80;;;1.40;;
71106;SDS011;58763;47.982;11.516;2022-10-16T03:04:43;4.20;;;1.80;;
71106;SDS011;58763;47.982;11.516;2022-10-16T03:07:08;4.38;;;1.75;;
71106;SDS011;58763;47.982;11.516;2022-10-16T03:09:34;4.10;;;1.40;;
71106;SDS011;58763;47.982;11.516;2022-10-16T03:12:00;4.53;;;1.85;;
71106;SDS011;58763;47.982;11.516;2022-10-16T03:14:25;3.15;;;1.80;;
71106;SDS011;58763;47.982;11.516;2022-10-16T03:16:51;4.10;;;2.42;;
71106;SDS011;58763;47.982;11.516;2022-10-16T03:19:17;3.58;;;2.03;;
71106;SDS011;58763;47.982;11.516;2022-10-16T03:21:43;4.20;;;1.33;;
71106;SDS011;58763;47.982;11.516;2022-10-16T03:24:09;2.53;;;1.23;;
71106;SDS011;58763;47.982;11.516;2022-10-16T03:26:34;3.45;;;1.38;;
71106;SDS011;58763;47.982;11.516;2022-10-16T03:29:00;3.30;;;1.92;;
71106;SDS011;58763;47.982;11.516;2022-10-16T03:31:27;3.38;;;1.88;;
71106;SDS011;58763;47.982;11.516;2022-10-16T03:33:53;3.17;;;1.45;;
71106;SDS011;58763;47.982;11.516;2022-10-16T03:36:18;4.28;;;1.40;;
71106;SDS011;58763;47.982;11.516;2022-10-16T03:38:44;3.45;;;1.33;;
71106;SDS011;58763;47.982;11.516;2022-10-16T03:41:09;3.80;;;1.17;;
71106;SDS011;58763;47.982;11.516;2022-10-16T03:43:35;2.65;;;1.00;;
71106;SDS011;58763;47.982;11.516;2022-10-16T03:46:01;2.35;;;0.98;;
71106;SDS011;58763;47.982;11.516;2022-10-16T03:48:26;2.88;;;1.25;;
71106;SDS011;58763;47.982;11.516;2022-10-16T03:50:52;5.50;;;1.35;;
71106;SDS011;58763;47.982;11.516;2022-10-16T03:53:17;4.00;;;1.42;;
71106;SDS011;58763;47.982;11.516;2022-10-16T03:55:43;6.15;;;1.45;;
71106;SDS011;58763;47.982;11.516;2022-10-16T03:58:10;2.88;;;1.38;;
71106;SDS011;58763;47.982;11.516;2022-10-16T04:00:39;3.35;;;1.40;;
71106;SDS011;58763;47.982;11.516;2022-10-16T04:03:08;3.58;;;1.45;;
71106;SDS011;58763;47.982;11.516;2022-10-16T04:05:34;4.95;;;1.58;;
71106;SDS011;58763;47.982;11.516;2022-10-16T04:08:00;3.55;;;1.58;;
71106;SDS011;58763;47.982;11.516;2022-10-16T04:10:25;4.15;;;1.52;;
71106;SDS011;58763;47.982;11.516;2022-10-16T04:12:51;6.10;;;1.63;;
71106;SDS011;58763;47.982;11.516;2022-10-16T04:15:19;3.50;;;1.70;;
71106;SDS011;58763;47.982;11.516;2022-10-16T04:17:45;5.13;;;2.40;;
71106;SDS011;58763;47.982;11.516;2022-10-16T04:20:10;4.47;;;2.40;;
71106;SDS011;58763;47.982;11.516;2022-10-16T04:22:36;3.28;;;1.77;;
71106;SDS011;58763;47.982;11.516;2022-10-16T04:25:02;3.90;;;1.65;;
71106;SDS011;58763;47.982;11.516;2022-10-16T04:27:27;4.20;;;1.90;;
71106;SDS011;58763;47.982;11.516;2022-10-16T04:29:53;4.05;;;1.98;;
71106;SDS011;58763;47.982;11.516;2022-10-16T04:32:19;4.22;;;2.15;;
71106;SDS011;58763;47.982;11.516;2022-10-16T04:34:44;3.88;;;1.80;;
71106;SDS011;58763;47.982;11.516;2022-10-16T04:37:10;4.72;;;1.60;;
71106;SDS011;58763;47.982;11.516;2022-10-16T04:39:35;3.75;;;1.80;;
71106;SDS011;58763;47.982;11.516;2022-10-16T04:42:01;4.05;;;2.10;;
71106;SDS011;58763;47.982;11.516;2022-10-16T04:44:27;4.65;;;2.30;;
71106;SDS011;58763;47.982;11.516;2022-10-16T04:46:53;4.22;;;2.00;;
71106;SDS011;58763;47.982;11.516;2022-10-16T04:49:18;4.43;;;2.20;;
71106;SDS011;58763;47.982;11.516;2022-10-16T04:51:44;3.55;;;1.60;;
71106;SDS011;58763;47.982;11.516;2022-10-16T04:54:09;4.20;;;1.77;;
71106;SDS011;58763;47.982;11.516;2022-10-16T04:56:35;4.38;;;1.60;;
71106;SDS011;58763;47.982;11.516;2022-10-16T04:59:08;3.50;;;1.73;;
71106;SDS011;58763;47.982;11.516;2022-10-16T05:01:34;4.55;;;1.90;;
71106;SDS011;58763;47.982;11.516;2022-10-16T05:04:00;5.10;;;1.70;;
71106;SDS011;58763;47.982;11.516;2022-10-16T05:06:26;3.65;;;1.80;;
71106;SDS011;58763;47.982;11.516;2022-10-16T05:08:52;3.67;;;1.80;;
71106;SDS011;58763;47.982;11.516;2022-10-16T05:11:17;4.53;;;2.53;;
71106;SDS011;58763;47.982;11.516;2022-10-16T05:13:43;3.90;;;2.47;;
71106;SDS011;58763;47.982;11.516;2022-10-16T05:16:08;4.70;;;2.47;;
71106;SDS011;58763;47.982;11.516;2022-10-16T05:18:34;5.35;;;2.40;;
71106;SDS011;58763;47.982;11.516;2022-10-16T05:20:59;3.55;;;1.80;;
71106;SDS011;58763;47.982;11.516;2022-10-16T05:23:25;3.85;;;2.20;;
71106;SDS011;58763;47.982;11.516;2022-10-16T05:25:54;4.35;;;2.60;;
71106;SDS011;58763;47.982;11.516;2022-10-16T05:28:23;3.72;;;1.90;;
71106;SDS011;58763;47.982;11.516;2022-10-16T05:30:53;5.03;;;1.80;;
71106;SDS011;58763;47.982;11.516;2022-10-16T05:33:22;4.05;;;1.90;;
71106;SDS011;58763;47.982;11.516;2022-10-16T05:35:48;4.63;;;2.05;;
71106;SDS011;58763;47.982;11.516;2022-10-16T05:38:15;3.90;;;2.00;;
71106;SDS011;58763;47.982;11.516;2022-10-16T05:40:41;4.60;;;1.95;;
71106;SDS011;58763;47.982;11.516;2022-10-16T05:43:07;4.38;;;2.30;;
71106;SDS011;58763;47.982;11.516;2022-10-16T05:45:32;4.22;;;1.60;;
71106;SDS011;58763;47.982;11.516;2022-10-16T05:47:58;3.58;;;1.50;;
71106;SDS011;58763;47.982;11.516;2022-10-16T05:50:25;4.68;;;2.00;;
71106;SDS011;58763;47.982;11.516;2022-10-16T05:52:50;4.72;;;1.80;;
71106;SDS011;58763;47.982;11.516;2022-10-16T05:55:16;5.13;;;2.10;;
71106;SDS011;58763;47.982;11.516;2022-10-16T05:57:42;5.22;;;2.00;;
71106;SDS011;58763;47.982;11.516;2022-10-16T06:00:07;4.97;;;2.05;;
71106;SDS011;58763;47.982;11.516;2022-10-16T06:02:33;4.30;;;2.35;;
71106;SDS011;58763;47.982;11.516;2022-10-16T06:04:59;4.40;;;2.30;;
71106;SDS011;58763;47.982;11.516;2022-10-16T06:07:24;4.07;;;1.92;;
71106;SDS011;58763;47.982;11.516;2022-10-16T06:09:50;4.60;;;1.83;;
71106;SDS011;58763;47.982;11.516;2022-10-16T06:12:17;5.65;;;2.03;;
71106;SDS011;58763;47.982;11.516;2022-10-16T06:14:42;4.60;;;2.00;;
71106;SDS011;58763;47.982;11.516;2022-10-16T06:17:08;3.50;;;1.88;;
71106;SDS011;58763;47.982;11.516;2022-10-16T06:19:33;3.97;;;1.85;;
71106;SDS011;58763;47.982;11.516;2022-10-16T06:22:00;4.53;;;2.05;;
71106;SDS011;58763;47.982;11.516;2022-10-16T06:24:27;5.13;;;2.58;;
71106;SDS011;58763;47.982;11.516;2022-10-16T06:26:53;5.32;;;2.30;;
71106;SDS011;58763;47.982;11.516;2022-10-16T06:29:18;6.53;;;2.08;;
71106;SDS011;58763;47.982;11.516;2022-10-16T06:31:44;3.95;;;1.70;;
71106;SDS011;58763;47.982;11.516;2022-10-16T06:34:09;3.75;;;1.77;;
71106;SDS011;58763;47.982;11.516;2022-10-16T06:36:37;3.78;;;2.20;;
71106;SDS011;58763;47.982;11.516;2022-10-16T06:39:03;7.85;;;2.88;;
71106;SDS011;58763;47.982;11.516;2022-10-16T06:41:30;4.65;;;2.58;;
71106;SDS011;58763;47.982;11.516;2022-10-16T06:43:56;4.43;;;2.17;;
71106;SDS011;58763;47.982;11.516;2022-10-16T06:46:23;7.00;;;2.00;;
71106;SDS011;58763;47.982;11.516;2022-10-16T06:48:49;4.55;;;2.45;;
71106;SDS011;58763;47.982;11.516;2022-10-16T06:51:16;7.20;;;3.08;;
71106;SDS011;58763;47.982;11.516;2022-10-16T06:53:44;4.18;;;2.80;;
71106;SDS011;58763;47.982;11.516;2022-10-16T06:56:13;4.85;;;2.10;;
71106;SDS011;58763;47.982;11.516;2022-10-16T06:58:42;4.95;;;1.83;;
71106;SDS011;58763;47.982;11.516;2022-10-16T07:01:08;4.40;;;1.80;;
71106;SDS011;58763;47.982;11.516;2022-10-16T07:03:38;5.00;;;1.92;;
71106;SDS011;58763;47.982;11.516;2022-10-16T07:06:06;3.28;;;1.60;;
71106;SDS011;58763;47.982;11.516;2022-10-16T07:08:32;4.70;;;1.65;;
71106;SDS011;58763;47.982;11.516;2022-10-16T07:11:03;4.00;;;1.90;;
71106;SDS011;58763;47.982;11.516;2022-10-16T07:13:33;3.30;;;1.70;;
71106;SDS011;58763;47.982;11.516;2022-10-16T07:18:36;3.28;;;1.58;;
71106;SDS011;58763;47.982;11.516;2022-10-16T07:21:04;3.72;;;1.80;;
71106;SDS011;58763;47.982;11.516;2022-10-16T07:23:31;3.63;;;1.67;;
71106;SDS011;58763;47.982;11.516;2022-10-16T07:25:56;3.58;;;1.60;;
71106;SDS011;58763;47.982;11.516;2022-10-16T07:28:22;3.53;;;1.60;;
71106;SDS011;58763;47.982;11.516;2022-10-16T07:30:48;7.35;;;1.88;;
71106;SDS011;58763;47.982;11.516;2022-10-16T07:33:13;8.18;;;1.98;;
71106;SDS011;58763;47.982;11.516;2022-10-16T07:35:47;4.50;;;2.08;;
71106;SDS011;58763;47.982;11.516;2022-10-16T07:38:17;5.30;;;1.88;;
71106;SDS011;58763;47.982;11.516;2022-10-16T07:40:43;3.33;;;1.55;;
71106;SDS011;58763;47.982;11.516;2022-10-16T07:43:09;3.78;;;1.60;;
71106;SDS011;58763;47.982;11.516;2022-10-16T07:45:34;4.43;;;1.80;;
71106;SDS011;58763;47.982;11.516;2022-10-16T07:48:00;3.30;;;1.60;;
71106;SDS011;58763;47.982;11.516;2022-10-16T07:50:25;3.33;;;1.50;;
71106;SDS011;58763;47.982;11.516;2022-10-16T07:52:51;6.03;;;1.90;;
71106;SDS011;58763;47.982;11.516;2022-10-16T07:55:17;3.65;;;1.70;;
71106;SDS011;58763;47.982;11.516;2022-10-16T07:57:42;3.80;;;1.65;;
71106;SDS011;58763;47.982;11.516;2022-10-16T08:00:08;3.80;;;1.77;;
71106;SDS011;58763;47.982;11.516;2022-10-16T08:02:38;3.40;;;1.70;;
71106;SDS011;58763;47.982;11.516;2022-10-16T08:05:05;3.58;;;1.98;;
71106;SDS011;58763;47.982;11.516;2022-10-16T08:07:31;3.72;;;1.98;;
71106;SDS011;58763;47.982;11.516;2022-10-16T08:09:56;3.55;;;1.90;;
71106;SDS011;58763;47.982;11.516;2022-10-16T08:12:24;5.38;;;2.10;;
71106;SDS011;58763;47.982;11.516;2022-10-16T08:14:50;3.60;;;1.63;;
71106;SDS011;58763;47.982;11.516;2022-10-16T08:17:16;3.80;;;1.77;;
71106;SDS011;58763;47.982;11.516;2022-10-16T08:19:45;3.65;;;1.75;;
71106;SDS011;58763;47.982;11.516;2022-10-16T08:22:12;3.20;;;1.40;;
71106;SDS011;58763;47.982;11.516;2022-10-16T08:24:38;3.50;;;1.65;;
71106;SDS011;58763;47.982;11.516;2022-10-16T08:27:04;3.72;;;1.58;;
71106;SDS011;58763;47.982;11.516;2022-10-16T08:29:29;3.63;;;1.67;;
71106;SDS011;58763;47.982;11.516;2022-10-16T08:31:55;4.90;;;1.42;;
71106;SDS011;58763;47.982;11.516;2022-10-16T08:34:21;3.40;;;1.50;;
71106;SDS011;58763;47.982;11.516;2022-10-16T08:36:46;4.82;;;1.38;;
71106;SDS011;58763;47.982;11.516;2022-10-16T08:39:12;3.60;;;1.80;;
71106;SDS011;58763;47.982;11.516;2022-10-16T08:50:17;4.97;;;1.20;;
71106;SDS011;58763;47.982;11.516;2022-10-16T08:52:48;4.85;;;1.42;;
71106;SDS011;58763;47.982;11.516;2022-10-16T08:55:33;4.57;;;1.33;;
71106;SDS011;58763;47.982;11.516;2022-10-16T08:58:49;5.32;;;1.40;;
71106;SDS011;58763;47.982;11.516;2022-10-16T09:00:54;3.40;;;1.33;;
71106;SDS011;58763;47.982;11.516;2022-10-16T09:11:42;5.97;;;1.85;;
71106;SDS011;58763;47.982;11.516;2022-10-16T09:14:18;3.95;;;1.80;;
71106;SDS011;58763;47.982;11.516;2022-10-16T09:16:53;4.60;;;1.70;;
71106;SDS011;58763;47.982;11.516;2022-10-16T09:19:29;5.03;;;1.70;;
71106;SDS011;58763;47.982;11.516;2022-10-16T09:22:01;2.60;;;1.23;;
71106;SDS011;58763;47.982;11.516;2022-10-16T09:24:37;4.43;;;1.40;;
71106;SDS011;58763;47.982;11.516;2022-10-16T09:27:03;4.10;;;1.52;;
71106;SDS011;58763;47.982;11.516;2022-10-16T09:29:29;4.40;;;1.50;;
71106;SDS011;58763;47.982;11.516;2022-10-16T09:31:54;3.33;;;1.70;;
71106;SDS011;58763;47.982;11.516;2022-10-16T09:34:35;3.33;;;1.50;;
71106;SDS011;58763;47.982;11.516;2022-10-16T09:37:09;5.80;;;1.58;;
71106;SDS011;58763;47.982;11.516;2022-10-16T09:39:48;5.57;;;1.77;;
71106;SDS011;58763;47.982;11.516;2022-10-16T09:42:18;2.65;;;1.17;;
71106;SDS011;58763;47.982;11.516;2022-10-16T09:44:49;3.83;;;1.35;;
71106;SDS011;58763;47.982;11.516;2022-10-16T09:47:23;3.70;;;1.33;;
71106;SDS011;58763;47.982;11.516;2022-10-16T09:49:52;3.35;;;1.45;;
71106;SDS011;58763;47.982;11.516;2022-10-16T09:52:27;3.10;;;1.30;;
71106;SDS011;58763;47.982;11.516;2022-10-16T09:54:55;3.95;;;1.30;;
71106;SDS011;58763;47.982;11.516;2022-10-16T09:57:22;3.08;;;1.33;;
71106;SDS011;58763;47.982;11.516;2022-10-16T09:59:52;5.80;;;1.70;;
71106;SDS011;58763;47.982;11.516;2022-10-16T10:02:35;3.67;;;1.55;;
71106;SDS011;58763;47.982;11.516;2022-10-16T10:05:06;3.88;;;1.30;;
71106;SDS011;58763;47.982;11.516;2022-10-16T10:07:46;3.05;;;1.58;;
71106;SDS011;58763;47.982;11.516;2022-10-16T10:10:28;3.33;;;1.33;;
71106;SDS011;58763;47.982;11.516;2022-10-16T10:12:55;3.67;;;1.35;;
71106;SDS011;58763;47.982;11.516;2022-10-16T10:15:23;3.17;;;1.40;;
71106;SDS011;58763;47.982;11.516;2022-10-16T10:17:50;2.60;;;1.15;;
71106;SDS011;58763;47.982;11.516;2022-10-16T10:22:53;3.17;;;1.40;;
71106;SDS011;58763;47.982;11.516;2022-10-16T10:25:26;3.47;;;1.30;;
71106;SDS011;58763;47.982;11.516;2022-10-16T10:41:53;3.00;;;1.10;;
71106;SDS011;58763;47.982;11.516;2022-10-16T10:44:27;3.47;;;1.40;;
71106;SDS011;58763;47.982;11.516;2022-10-16T11:06:16;2.53;;;0.90;;
71106;SDS011;58763;47.982;11.516;2022-10-16T11:08:50;2.20;;;0.90;;
71106;SDS011;58763;47.982;11.516;2022-10-16T11:11:32;3.22;;;0.95;;
71106;SDS011;58763;47.982;11.516;2022-10-16T11:14:00;4.57;;;0.95;;
71106;SDS011;58763;47.982;11.516;2022-10-16T11:27:22;2.42;;;1.00;;
71106;SDS011;58763;47.982;11.516;2022-10-16T11:29:59;2.17;;;0.85;;
71106;SDS011;58763;47.982;11.516;2022-10-16T11:32:34;2.05;;;0.88;;
71106;SDS011;58763;47.982;11.516;2022-10-16T11:35:12;2.05;;;0.70;;
71106;SDS011;58763;47.982;11.516;2022-10-16T11:37:45;2.72;;;0.50;;
71106;SDS011;58763;47.982;11.516;2022-10-16T11:42:44;2.17;;;0.77;;
71106;SDS011;58763;47.982;11.516;2022-10-16T11:45:26;2.10;;;0.70;;
71106;SDS011;58763;47.982;11.516;2022-10-16T11:48:07;1.67;;;0.57;;
71106;SDS011;58763;47.982;11.516;2022-10-16T11:50:53;1.80;;;0.60;;
71106;SDS011;58763;47.982;11.516;2022-10-16T11:56:19;3.42;;;0.68;;
71106;SDS011;58763;47.982;11.516;2022-10-16T11:58:53;4.57;;;0.90;;
71106;SDS011;58763;47.982;11.516;2022-10-16T12:01:33;1.40;;;0.50;;
71106;SDS011;58763;47.982;11.516;2022-10-16T12:06:50;2.65;;;0.73;;
71106;SDS011;58763;47.982;11.516;2022-10-16T12:09:30;2.53;;;0.70;;
71106;SDS011;58763;47.982;11.516;2022-10-16T12:11:58;1.42;;;0.60;;
71106;SDS011;58763;47.982;11.516;2022-10-16T12:17:04;1.88;;;0.65;;
71106;SDS011;58763;47.982;11.516;2022-10-16T12:19:57;1.38;;;0.40;;
71106;SDS011;58763;47.982;11.516;2022-10-16T12:22:54;2.45;;;0.60;;
71106;SDS011;58763;47.982;11.516;2022-10-16T12:25:39;2.05;;;0.40;;
71106;SDS011;58763;47.982;11.516;2022-10-16T12:30:40;3.38;;;0.60;;
71106;SDS011;58763;47.982;11.516;2022-10-16T12:33:24;1.45;;;0.60;;
71106;SDS011;58763;47.982;11.516;2022-10-16T12:35:51;1.95;;;0.40;;
71106;SDS011;58763;47.982;11.516;2022-10-16T12:38:24;1.35;;;0.40;;
71106;SDS011;58763;47.982;11.516;2022-10-16T12:41:05;1.48;;;0.40;;
71106;SDS011;58763;47.982;11.516;2022-10-16T12:43:41;2.97;;;0.50;;
71106;SDS011;58763;47.982;11.516;2022-10-16T12:48:33;1.48;;;0.43;;
71106;SDS011;58763;47.982;11.516;2022-10-16T12:51:09;0.98;;;0.40;;
71106;SDS011;58763;47.982;11.516;2022-10-16T12:53:37;1.42;;;0.30;;
71106;SDS011;58763;47.982;11.516;2022-10-16T12:56:15;1.77;;;0.47;;
71106;SDS011;58763;47.982;11.516;2022-10-16T12:58:59;1.05;;;0.40;;
71106;SDS011;58763;47.982;11.516;2022-10-16T13:01:36;1.70;;;0.50;;
71106;SDS011;58763;47.982;11.516;2022-10-16T13:04:31;3.35;;;0.60;;
71106;SDS011;58763;47.982;11.516;2022-10-16T13:10:16;1.65;;;0.57;;
71106;SDS011;58763;47.982;11.516;2022-10-16T13:12:56;2.35;;;0.50;;
71106;SDS011;58763;47.982;11.516;2022-10-16T13:18:39;1.33;;;0.43;;
71106;SDS011;58763;47.982;11.516;2022-10-16T13:21:25;1.02;;;0.40;;
71106;SDS011;58763;47.982;11.516;2022-10-16T13:29:34;1.95;;;0.50;;
71106;SDS011;58763;47.982;11.516;2022-10-16T13:32:00;3.20;;;1.08;;
71106;SDS011;58763;47.982;11.516;2022-10-16T13:34:32;3.53;;;1.83;;
71106;SDS011;58763;47.982;11.516;2022-10-16T13:36:58;3.42;;;0.60;;
71106;SDS011;58763;47.982;11.516;2022-10-16T13:39:25;0.73;;;0.25;;
71106;SDS011;58763;47.982;11.516;2022-10-16T13:42:22;2.38;;;0.50;;
71106;SDS011;58763;47.982;11.516;2022-10-16T13:44:53;2.13;;;0.40;;
71106;SDS011;58763;47.982;11.516;2022-10-16T13:47:21;3.22;;;0.50;;
71106;SDS011;58763;47.982;11.516;2022-10-16T13:50:00;1.63;;;0.45;;
71106;SDS011;58763;47.982;11.516;2022-10-16T13:52:31;2.28;;;0.50;;
71106;SDS011;58763;47.982;11.516;2022-10-16T13:54:57;1.75;;;0.52;;
71106;SDS011;58763;47.982;11.516;2022-10-16T13:57:23;4.22;;;1.98;;
71106;SDS011;58763;47.982;11.516;2022-10-16T13:59:50;4.65;;;1.83;;
71106;SDS011;58763;47.982;11.516;2022-10-16T14:02:18;1.98;;;0.57;;
71106;SDS011;58763;47.982;11.516;2022-10-16T14:04:45;3.05;;;0.60;;
71106;SDS011;58763;47.982;11.516;2022-10-16T14:07:14;1.70;;;0.52;;
71106;SDS011;58763;47.982;11.516;2022-10-16T14:09:57;2.33;;;0.70;;
71106;SDS011;58763;47.982;11.516;2022-10-16T14:12:26;1.98;;;0.50;;
71106;SDS011;58763;47.982;11.516;2022-10-16T14:14:53;1.45;;;0.45;;
71106;SDS011;58763;47.982;11.516;2022-10-16T14:17:27;2.00;;;0.40;;
71106;SDS011;58763;47.982;11.516;2022-10-16T14:19:57;0.93;;;0.40;;
71106;SDS011;58763;47.982;11.516;2022-10-16T14:24:55;1.58;;;0.40;;
71106;SDS011;58763;47.982;11.516;2022-10-16T14:27:31;0.80;;;0.30;;
71106;SDS011;58763;47.982;11.516;2022-10-16T14:32:33;1.63;;;0.43;;
71106;SDS011;58763;47.982;11.516;2022-10-16T14:34:59;1.77;;;0.57;;
71106;SDS011;58763;47.982;11.516;2022-10-16T14:37:25;1.33;;;0.40;;
71106;SDS011;58763;47.982;11.516;2022-10-16T14:39:53;2.25;;;0.50;;
71106;SDS011;58763;47.982;11.516;2022-10-16T14:42:20;3.72;;;0.50;;
71106;SDS011;58763;47.982;11.516;2022-10-16T14:44:49;1.88;;;0.50;;
71106;SDS011;58763;47.982;11.516;2022-10-16T14:47:18;0.77;;;0.38;;
71106;SDS011;58763;47.982;11.516;2022-10-16T14:49:50;0.82;;;0.40;;
71106;SDS011;58763;47.982;11.516;2022-10-16T14:52:16;1.15;;;0.50;;
71106;SDS011;58763;47.982;11.516;2022-10-16T14:54:42;1.48;;;0.50;;
71106;SDS011;58763;47.982;11.516;2022-10-16T14:57:24;2.95;;;0.52;;
71106;SDS011;58763;47.982;11.516;2022-10-16T14:59:53;2.30;;;0.50;;
71106;SDS011;58763;47.982;11.516;2022-10-16T15:02:32;1.40;;;0.30;;
71106;SDS011;58763;47.982;11.516;2022-10-16T15:05:21;1.08;;;0.38;;
71106;SDS011;58763;47.982;11.516;2022-10-16T15:07:52;2.72;;;0.50;;
71106;SDS011;58763;47.982;11.516;2022-10-16T15:10:19;2.05;;;0.50;;
71106;SDS011;58763;47.982;11.516;2022-10-16T15:12:46;1.00;;;0.35;;
71106;SDS011;58763;47.982;11.516;2022-10-16T15:17:59;1.65;;;0.50;;
71106;SDS011;58763;47.982;11.516;2022-10-16T15:20:30;3.45;;;0.30;;
71106;SDS011;58763;47.982;11.516;2022-10-16T15:23:02;1.77;;;0.40;;
71106;SDS011;58763;47.982;11.516;2022-10-16T15:25:39;2.97;;;0.50;;
71106;SDS011;58763;47.982;11.516;2022-10-16T15:28:08;1.50;;;0.50;;
71106;SDS011;58763;47.982;11.516;2022-10-16T15:30:34;4.00;;;0.60;;
71106;SDS011;58763;47.982;11.516;2022-10-16T15:33:00;1.02;;;0.40;;
71106;SDS011;58763;47.982;11.516;2022-10-16T15:35:26;1.10;;;0.40;;
71106;SDS011;58763;47.982;11.516;2022-10-16T15:37:52;1.27;;;0.40;;
71106;SDS011;58763;47.982;11.516;2022-10-16T15:40:19;1.63;;;0.50;;
71106;SDS011;58763;47.982;11.516;2022-10-16T15:42:45;4.13;;;0.60;;
71106;SDS011;58763;47.982;11.516;2022-10-16T15:45:11;1.63;;;0.45;;
71106;SDS011;58763;47.982;11.516;2022-10-16T15:47:38;1.55;;;0.40;;
71106;SDS011;58763;47.982;11.516;2022-10-16T15:50:03;2.28;;;0.50;;
71106;SDS011;58763;47.982;11.516;2022-10-16T15:52:30;3.00;;;1.00;;
71106;SDS011;58763;47.982;11.516;2022-10-16T15:54:57;3.15;;;0.70;;
71106;SDS011;58763;47.982;11.516;2022-10-16T15:57:23;2.38;;;0.70;;
71106;SDS011;58763;47.982;11.516;2022-10-16T15:59:49;2.67;;;1.13;;
71106;SDS011;58763;47.982;11.516;2022-10-16T16:02:15;5.53;;;1.70;;
71106;SDS011;58763;47.982;11.516;2022-10-16T16:04:40;7.40;;;4.45;;
71106;SDS011;58763;47.982;11.516;2022-10-16T16:07:06;10.05;;;6.00;;
71106;SDS011;58763;47.982;11.516;2022-10-16T16:09:34;14.23;;;8.45;;
71106;SDS011;58763;47.982;11.516;2022-10-16T16:12:00;12.27;;;7.22;;
71106;SDS011;58763;47.982;11.516;2022-10-16T16:14:26;7.38;;;3.80;;
71106;SDS011;58763;47.982;11.516;2022-10-16T16:16:55;6.72;;;2.92;;
71106;SDS011;58763;47.982;11.516;2022-10-16T16:19:21;6.43;;;3.15;;
71106;SDS011;58763;47.982;11.516;2022-10-16T16:21:47;6.05;;;3.47;;
71106;SDS011;58763;47.982;11.516;2022-10-16T16:24:13;6.70;;;3.50;;
71106;SDS011;58763;47.982;11.516;2022-10-16T16:26:38;5.68;;;2.33;;
71106;SDS011;58763;47.982;11.516;2022-10-16T16:29:08;4.03;;;1.58;;
71106;SDS011;58763;47.982;11.516;2022-10-16T16:31:38;4.20;;;1.50;;
71106;SDS011;58763;47.982;11.516;2022-10-16T16:34:04;8.77;;;1.40;;
71106;SDS011;58763;47.982;11.516;2022-10-16T16:36:30;3.95;;;1.85;;
71106;SDS011;58763;47.982;11.516;2022-10-16T16:38:56;4.20;;;1.67;;
71106;SDS011;58763;47.982;11.516;2022-10-16T16:41:28;4.00;;;1.70;;
71106;SDS011;58763;47.982;11.516;2022-10-16T16:43:55;6.30;;;2.30;;
71106;SDS011;58763;47.982;11.516;2022-10-16T16:46:27;5.40;;;2.00;;
71106;SDS011;58763;47.982;11.516;2022-10-16T16:48:53;6.82;;;2.03;;